Impacts TAF Board INFO
FOR SITUATIONAL AWARENESS. NOT TO BE USED FOR FLIGHT PLANNING PURPOSES.
IDs:

KPNS - Pensacola Intl, FL, US

Issued at 0520 UTC 16 Aug 2018
Updated at 1025 UTC 16 Aug 2018
Potential Impact None Slight Moderate High
Time<<16/23Z 17/00Z 17/01Z 17/02Z 17/03Z 17/04Z 17/05Z 17/06Z 17/07Z 17/08Z 17/09Z 17/10Z 17/11Z>>
Type PRVL PRVL PRVL PRVL PRVL PRVL PRVL
VIS >6 >6 >6 >6 >6 >6 >6
CIG 50 50 50 50 250 250 250
Cover BKN BKN BKN BKN OVC OVC OVC
FltCat VFR VFR VFR VFR VFR VFR VFR
WX -- -- -- -- -- -- --
WDir 180 180 180 180 140 140 140
WSpd 10 10 10 10 4 4 4
WGst -- -- -- -- -- -- --

Raw TAF
KPNS 160520Z 1606/1706 19005KT P6SM SCT023
  FM161600 18010KT P6SM BKN050 BKN250
  TEMPO 1617/1621 5SM TSRA BKN040CB
  FM170300 14004KT P6SM OVC250


METAR Board
Radar Display
Forecast Discussion

FOR SITUATIONAL AWARENESS. NOT TO BE USED FOR FLIGHT PLANNING PURPOSES.